Time;durP1;ratioP1;P1;durP2;ratioP2;P2;SDS_P1;SDS_P2;PMS_P1;PMS_P2;Temp;Humidity;BMP_temperature;BMP_pressure;BME280_temperature;BME280_humidity;BME280_pressure;Samples;Min_cycle;Max_cycle;Signal;HPM_P1;HPM_P2
2022/05/30 00:02:10;;;;;;;0.55;0.37;;;;;;;;;;1843367;76;26312;-51
2022/05/30 00:04:38;;;;;;;0.30;0.30;;;;;;;;;;1845359;76;26631;-55
2022/05/30 00:07:07;;;;;;;0.45;0.45;;;;;;;;;;1839714;76;26315;-55
2022/05/30 00:09:34;;;;;;;0.30;0.30;;;;;;;;;;1843383;76;26323;-48
2022/05/30 00:12:02;;;;;;;0.40;0.40;;;;;;;;;;1844650;76;26321;-55
2022/05/30 00:14:30;;;;;;;0.30;0.20;;;;;;;;;;1845542;76;26300;-52
2022/05/30 00:16:57;;;;;;;0.40;0.40;;;;;;;;;;1845254;76;26308;-55
2022/05/30 00:19:25;;;;;;;0.40;0.40;;;;;;;;;;1841158;76;26261;-51
2022/05/30 00:21:53;;;;;;;0.30;0.30;;;;;;;;;;1845780;76;26258;-60
2022/05/30 00:24:21;;;;;;;0.40;0.40;;;;;;;;;;1845451;76;26303;-54
2022/05/30 00:26:48;;;;;;;0.40;0.40;;;;;;;;;;1842076;76;26396;-61
2022/05/30 00:29:15;;;;;;;0.30;0.30;;;;;;;;;;1846679;76;26250;-47
2022/05/30 00:31:43;;;;;;;0.37;0.37;;;;;;;;;;1845684;76;26232;-55
2022/05/30 00:34:10;;;;;;;0.33;0.33;;;;;;;;;;1845846;76;26717;-49
2022/05/30 00:36:38;;;;;;;0.30;0.30;;;;;;;;;;1846800;76;26321;-60
2022/05/30 00:39:05;;;;;;;0.37;0.37;;;;;;;;;;1844798;76;26839;-49
2022/05/30 00:41:33;;;;;;;0.30;0.30;;;;;;;;;;1841139;76;26728;-50
2022/05/30 00:44:00;;;;;;;0.20;0.20;;;;;;;;;;1841584;76;26258;-54
2022/05/30 00:46:27;;;;;;;0.45;0.45;;;;;;;;;;1827761;76;26355;-50
2022/05/30 00:48:56;;;;;;;0.42;0.42;;;;;;;;;;1846836;76;26871;-52
2022/05/30 00:51:25;;;;;;;2.22;0.30;;;;;;;;;;1839334;76;26343;-49
2022/05/30 00:53:53;;;;;;;0.70;0.50;;;;;;;;;;1843984;76;26249;-45
2022/05/30 00:56:22;;;;;;;0.75;0.55;;;;;;;;;;1825059;76;26277;-56
2022/05/30 00:58:50;;;;;;;0.33;0.33;;;;;;;;;;1845380;76;26804;-49
2022/05/30 01:01:19;;;;;;;1.55;0.45;;;;;;;;;;1838784;76;26279;-49
2022/05/30 01:06:33;;;;;;;1.75;0.50;;;;;;;;;;1836464;77;26274;-44
2022/05/30 01:09:02;;;;;;;0.85;0.40;;;;;;;;;;1837055;77;26320;-51
2022/05/30 01:11:31;;;;;;;3.40;0.78;;;;;;;;;;1831249;77;26336;-48
2022/05/30 01:13:58;;;;;;;0.40;0.40;;;;;;;;;;1833589;77;26262;-51
2022/05/30 01:16:25;;;;;;;4.22;0.65;;;;;;;;;;1832354;77;26285;-48
2022/05/30 01:18:54;;;;;;;0.65;0.30;;;;;;;;;;1827292;77;26323;-55
2022/05/30 01:21:23;;;;;;;0.70;0.40;;;;;;;;;;1810361;78;26222;-52
2022/05/30 01:24:14;;;;;;;1.37;0.40;;;;;;;;;;1826159;77;26386;-56
2022/05/30 01:26:39;;;;;;;0.65;0.50;;;;;;;;;;1836231;77;26905;-50
2022/05/30 01:29:10;;;;;;;3.83;0.50;;;;;;;;;;1832536;77;26616;-51
2022/05/30 01:31:37;;;;;;;2.10;0.50;;;;;;;;;;1813958;77;26809;-51
2022/05/30 01:34:05;;;;;;;0.40;0.40;;;;;;;;;;1836896;77;26271;-48
2022/05/30 01:36:33;;;;;;;0.40;0.37;;;;;;;;;;1828920;77;26654;-48
2022/05/30 01:39:00;;;;;;;0.40;0.40;;;;;;;;;;1827574;78;26268;-51
2022/05/30 01:41:28;;;;;;;0.72;0.50;;;;;;;;;;1829659;77;26688;-58
2022/05/30 01:43:55;;;;;;;0.40;0.40;;;;;;;;;;1837446;77;26269;-51
2022/05/30 01:46:26;;;;;;;0.40;0.40;;;;;;;;;;1838562;77;26320;-48
2022/05/30 01:48:54;;;;;;;0.30;0.30;;;;;;;;;;1836763;77;26782;-51
2022/05/30 01:51:22;;;;;;;3.45;0.50;;;;;;;;;;1832662;77;26758;-49
2022/05/30 01:53:50;;;;;;;1.30;0.40;;;;;;;;;;1816853;77;26359;-55
2022/05/30 01:56:19;;;;;;;0.30;0.30;;;;;;;;;;1831078;77;26333;-50
2022/05/30 01:58:46;;;;;;;0.37;0.33;;;;;;;;;;1834799;77;26369;-48
2022/05/30 02:01:18;;;;;;;0.62;0.40;;;;;;;;;;1831975;77;26403;-48
2022/05/30 02:03:46;;;;;;;0.40;0.40;;;;;;;;;;1834640;77;26619;-55
2022/05/30 02:06:15;;;;;;;1.10;0.40;;;;;;;;;;1828469;77;26321;-51
2022/05/30 02:08:43;;;;;;;0.42;0.42;;;;;;;;;;1830761;77;26211;-51
2022/05/30 02:11:11;;;;;;;0.42;0.42;;;;;;;;;;1832783;77;26290;-53
2022/05/30 02:13:38;;;;;;;0.40;0.35;;;;;;;;;;1835716;77;26764;-50
2022/05/30 02:18:53;;;;;;;1.60;0.53;;;;;;;;;;1834279;77;26376;-51
2022/05/30 02:21:20;;;;;;;0.45;0.40;;;;;;;;;;1832275;77;26650;-56
2022/05/30 02:23:47;;;;;;;0.57;0.37;;;;;;;;;;1836537;77;26242;-52
2022/05/30 02:26:14;;;;;;;0.45;0.45;;;;;;;;;;1832235;77;26332;-46
2022/05/30 02:28:42;;;;;;;0.40;0.40;;;;;;;;;;1831100;77;26758;-52
2022/05/30 02:31:09;;;;;;;0.65;0.40;;;;;;;;;;1831829;77;26822;-49
2022/05/30 02:36:40;;;;;;;0.30;0.30;;;;;;;;;;1836192;77;26298;-52
2022/05/30 02:39:11;;;;;;;0.50;0.50;;;;;;;;;;1831644;76;26269;-48
2022/05/30 02:41:40;;;;;;;0.80;0.40;;;;;;;;;;1833772;77;26324;-49
2022/05/30 02:44:07;;;;;;;1.27;0.30;;;;;;;;;;1825142;77;26233;-49
2022/05/30 02:46:34;;;;;;;1.05;0.42;;;;;;;;;;1836248;77;26204;-48
2022/05/30 02:49:02;;;;;;;1.25;0.35;;;;;;;;;;1833174;77;26339;-55
2022/05/30 02:51:29;;;;;;;0.50;0.50;;;;;;;;;;1834802;77;26281;-47
2022/05/30 02:53:57;;;;;;;0.30;0.30;;;;;;;;;;1825337;77;26261;-51
2022/05/30 02:56:24;;;;;;;0.25;0.23;;;;;;;;;;1836314;77;26268;-49
2022/05/30 02:58:51;;;;;;;1.70;0.28;;;;;;;;;;1833308;77;26324;-48
2022/05/30 03:01:19;;;;;;;0.40;0.40;;;;;;;;;;1842186;77;26375;-55
2022/05/30 03:03:46;;;;;;;0.40;0.40;;;;;;;;;;1845981;76;27312;-48
2022/05/30 03:06:14;;;;;;;0.30;0.30;;;;;;;;;;1845509;76;26276;-55
2022/05/30 03:08:41;;;;;;;0.40;0.40;;;;;;;;;;1845474;76;26293;-56
2022/05/30 03:11:10;;;;;;;0.42;0.42;;;;;;;;;;1848820;76;26308;-55
2022/05/30 03:13:37;;;;;;;0.53;0.30;;;;;;;;;;1848737;76;26265;-48
2022/05/30 03:16:05;;;;;;;0.62;0.40;;;;;;;;;;1848143;77;27551;-52
2022/05/30 03:18:32;;;;;;;0.40;0.40;;;;;;;;;;1842678;76;26326;-46
2022/05/30 03:21:00;;;;;;;0.30;0.30;;;;;;;;;;1850725;76;26331;-52
2022/05/30 03:23:28;;;;;;;1.40;0.40;;;;;;;;;;1839802;76;26756;-52
2022/05/30 03:25:55;;;;;;;0.30;0.30;;;;;;;;;;1834378;76;26300;-51
2022/05/30 03:28:22;;;;;;;0.47;0.47;;;;;;;;;;1833235;76;26339;-46
2022/05/30 03:30:50;;;;;;;0.30;0.30;;;;;;;;;;1843854;76;26281;-48
2022/05/30 03:33:18;;;;;;;0.42;0.42;;;;;;;;;;1845810;77;26752;-50
2022/05/30 03:35:45;;;;;;;0.40;0.40;;;;;;;;;;1845454;76;26304;-52
2022/05/30 03:38:13;;;;;;;0.70;0.53;;;;;;;;;;1845104;76;26413;-54
2022/05/30 03:40:41;;;;;;;0.37;0.37;;;;;;;;;;1830737;76;26372;-54
2022/05/30 03:43:10;;;;;;;1.57;0.40;;;;;;;;;;1848702;76;26331;-54
2022/05/30 03:45:38;;;;;;;0.47;0.47;;;;;;;;;;1837427;76;26274;-53
2022/05/30 03:48:07;;;;;;;0.40;0.40;;;;;;;;;;1843029;76;26265;-51
2022/05/30 03:50:34;;;;;;;0.30;0.30;;;;;;;;;;1844816;76;26259;-60
2022/05/30 03:53:05;;;;;;;1.60;0.60;;;;;;;;;;1847573;76;26233;-52
2022/05/30 03:55:30;;;;;;;0.60;0.50;;;;;;;;;;1848252;76;26277;-48
2022/05/30 03:57:57;;;;;;;0.60;0.60;;;;;;;;;;1841880;76;26267;-51
2022/05/30 04:00:25;;;;;;;0.40;0.40;;;;;;;;;;1836898;76;26656;-52
2022/05/30 04:02:52;;;;;;;2.12;0.45;;;;;;;;;;1851456;76;26265;-47
2022/05/30 04:05:20;;;;;;;0.40;0.40;;;;;;;;;;1847229;76;26272;-54
2022/05/30 04:07:48;;;;;;;1.22;0.50;;;;;;;;;;1850408;77;26724;-55
2022/05/30 04:10:15;;;;;;;0.50;0.40;;;;;;;;;;1854930;76;26370;-53
2022/05/30 04:12:42;;;;;;;0.40;0.40;;;;;;;;;;1853601;76;26239;-45
2022/05/30 04:15:11;;;;;;;0.82;0.50;;;;;;;;;;1850092;76;26261;-54
2022/05/30 04:17:38;;;;;;;0.40;0.40;;;;;;;;;;1834282;76;26276;-54
2022/05/30 04:20:06;;;;;;;1.27;0.82;;;;;;;;;;1868413;76;26257;-58
2022/05/30 04:22:34;;;;;;;0.80;0.40;;;;;;;;;;1860582;76;26238;-53
2022/05/30 04:25:01;;;;;;;0.68;0.57;;;;;;;;;;1867131;76;26262;-56
2022/05/30 04:27:29;;;;;;;0.50;0.50;;;;;;;;;;1860871;76;26246;-51
2022/05/30 04:29:56;;;;;;;0.47;0.40;;;;;;;;;;1869597;76;26266;-55
2022/05/30 04:32:24;;;;;;;0.62;0.40;;;;;;;;;;1856600;76;27611;-48
2022/05/30 04:34:51;;;;;;;0.40;0.40;;;;;;;;;;1865670;76;26202;-47
2022/05/30 04:37:18;;;;;;;1.10;0.40;;;;;;;;;;1861332;76;26330;-51
2022/05/30 04:39:46;;;;;;;1.35;0.50;;;;;;;;;;1855981;76;26319;-50
2022/05/30 04:42:13;;;;;;;0.72;0.50;;;;;;;;;;1854529;76;26268;-54
2022/05/30 04:44:40;;;;;;;0.65;0.50;;;;;;;;;;1856438;76;26277;-51
2022/05/30 04:47:11;;;;;;;0.60;0.60;;;;;;;;;;1865472;76;26340;-49
2022/05/30 04:49:36;;;;;;;0.40;0.40;;;;;;;;;;1871175;76;26289;-48
2022/05/30 04:52:04;;;;;;;1.40;0.60;;;;;;;;;;1861936;76;26289;-52
2022/05/30 04:54:32;;;;;;;0.40;0.40;;;;;;;;;;1860557;76;26338;-46
2022/05/30 04:57:00;;;;;;;0.50;0.50;;;;;;;;;;1857606;76;26284;-55
2022/05/30 04:59:27;;;;;;;0.60;0.60;;;;;;;;;;1859388;76;26256;-52
2022/05/30 05:01:55;;;;;;;0.45;0.45;;;;;;;;;;1869986;75;26298;-55
2022/05/30 05:04:23;;;;;;;0.50;0.50;;;;;;;;;;1860431;76;26293;-59
2022/05/30 05:06:50;;;;;;;0.50;0.50;;;;;;;;;;1861155;76;26387;-56
2022/05/30 05:09:19;;;;;;;0.85;0.80;;;;;;;;;;1865865;76;26261;-54
2022/05/30 05:11:47;;;;;;;0.50;0.50;;;;;;;;;;1867272;76;26692;-49
2022/05/30 05:14:19;;;;;;;0.62;0.62;;;;;;;;;;1869169;76;26241;-51
2022/05/30 05:16:44;;;;;;;0.57;0.50;;;;;;;;;;1866640;75;26294;-50
2022/05/30 05:19:11;;;;;;;0.47;0.47;;;;;;;;;;1869615;76;26272;-51
2022/05/30 05:21:40;;;;;;;0.50;0.50;;;;;;;;;;1861155;76;26319;-52
2022/05/30 05:24:08;;;;;;;0.40;0.40;;;;;;;;;;1862325;76;26706;-50
2022/05/30 05:26:37;;;;;;;0.40;0.40;;;;;;;;;;1864382;76;26254;-53
2022/05/30 05:29:04;;;;;;;0.50;0.50;;;;;;;;;;1865965;76;26843;-57
2022/05/30 05:31:34;;;;;;;0.85;0.50;;;;;;;;;;1865339;76;26319;-52
2022/05/30 05:34:03;;;;;;;0.50;0.50;;;;;;;;;;1866452;76;26573;-52
2022/05/30 05:36:32;;;;;;;0.68;0.68;;;;;;;;;;1863281;76;26343;-53
2022/05/30 05:38:59;;;;;;;0.60;0.60;;;;;;;;;;1867110;75;26264;-49
2022/05/30 05:41:26;;;;;;;0.50;0.50;;;;;;;;;;1867579;76;26246;-57
2022/05/30 05:43:55;;;;;;;0.50;0.50;;;;;;;;;;1865298;76;26531;-54
2022/05/30 05:46:23;;;;;;;0.60;0.60;;;;;;;;;;1874299;76;26752;-47
2022/05/30 05:48:52;;;;;;;2.95;0.80;;;;;;;;;;1860879;76;26266;-53
2022/05/30 05:51:19;;;;;;;2.47;0.78;;;;;;;;;;1871898;76;26245;-48
2022/05/30 05:53:47;;;;;;;0.75;0.75;;;;;;;;;;1864168;76;26243;-49
2022/05/30 05:56:16;;;;;;;0.70;0.70;;;;;;;;;;1860516;76;26702;-52
2022/05/30 05:58:43;;;;;;;0.80;0.80;;;;;;;;;;1866071;75;26413;-49
2022/05/30 06:01:12;;;;;;;0.78;0.70;;;;;;;;;;1870318;76;26227;-47
2022/05/30 06:03:39;;;;;;;0.80;0.70;;;;;;;;;;1872485;75;26701;-51
2022/05/30 06:06:07;;;;;;;3.02;0.70;;;;;;;;;;1865711;76;26721;-49
2022/05/30 06:08:34;;;;;;;1.47;0.68;;;;;;;;;;1857399;76;26239;-50
2022/05/30 06:11:05;;;;;;;0.95;0.80;;;;;;;;;;1859333;76;26678;-54
2022/05/30 06:13:33;;;;;;;0.75;0.70;;;;;;;;;;1858804;76;27452;-49
2022/05/30 06:16:00;;;;;;;0.82;0.72;;;;;;;;;;1853896;76;26296;-49
2022/05/30 06:18:27;;;;;;;0.72;0.72;;;;;;;;;;1861455;76;26274;-47
2022/05/30 06:20:59;;;;;;;0.62;0.62;;;;;;;;;;1856107;76;26330;-49
2022/05/30 06:23:26;;;;;;;1.30;0.80;;;;;;;;;;1875824;76;26813;-55
2022/05/30 06:25:54;;;;;;;0.68;0.68;;;;;;;;;;1854437;76;26334;-54
2022/05/30 06:28:21;;;;;;;0.70;0.68;;;;;;;;;;1850187;76;26799;-55
2022/05/30 06:30:49;;;;;;;0.68;0.68;;;;;;;;;;1841062;76;26764;-52
2022/05/30 06:33:16;;;;;;;0.65;0.65;;;;;;;;;;1855895;76;26748;-47
2022/05/30 06:35:47;;;;;;;0.70;0.70;;;;;;;;;;1853789;76;26646;-49
2022/05/30 06:38:13;;;;;;;0.85;0.78;;;;;;;;;;1845854;77;26290;-55
2022/05/30 06:40:42;;;;;;;1.52;0.50;;;;;;;;;;1858458;76;26259;-54
2022/05/30 06:43:09;;;;;;;0.70;0.70;;;;;;;;;;1855663;75;26325;-54
2022/05/30 06:45:37;;;;;;;0.62;0.45;;;;;;;;;;1857624;76;26261;-61
2022/05/30 06:48:05;;;;;;;0.50;0.50;;;;;;;;;;1851606;76;26355;-52
2022/05/30 06:50:32;;;;;;;1.22;0.70;;;;;;;;;;1855704;76;26518;-54
2022/05/30 06:52:59;;;;;;;0.70;0.70;;;;;;;;;;1861343;76;27007;-51
2022/05/30 06:55:26;;;;;;;1.15;0.70;;;;;;;;;;1846704;76;28499;-57
2022/05/30 06:58:12;;;;;;;0.60;0.60;;;;;;;;;;1863890;76;26275;-60
2022/05/30 07:00:40;;;;;;;1.70;0.57;;;;;;;;;;1861231;76;26316;-50
2022/05/30 07:03:08;;;;;;;0.78;0.78;;;;;;;;;;1860320;76;26301;-50
2022/05/30 07:05:35;;;;;;;0.55;0.55;;;;;;;;;;1871630;76;26246;-47
2022/05/30 07:08:03;;;;;;;0.60;0.60;;;;;;;;;;1860321;76;26333;-52
2022/05/30 07:10:31;;;;;;;0.78;0.70;;;;;;;;;;1872403;76;26335;-52
2022/05/30 07:12:59;;;;;;;1.02;0.70;;;;;;;;;;1857207;76;26274;-49
2022/05/30 07:15:27;;;;;;;0.40;0.40;;;;;;;;;;1857661;76;26331;-47
2022/05/30 07:17:54;;;;;;;0.60;0.60;;;;;;;;;;1867206;76;26645;-51
2022/05/30 07:20:21;;;;;;;1.60;0.70;;;;;;;;;;1854174;76;28135;-47
2022/05/30 07:22:48;;;;;;;0.50;0.50;;;;;;;;;;1855322;76;26674;-54
2022/05/30 07:25:16;;;;;;;0.53;0.53;;;;;;;;;;1857745;76;26739;-56
2022/05/30 07:27:43;;;;;;;0.60;0.60;;;;;;;;;;1859539;76;26297;-54
2022/05/30 07:30:10;;;;;;;0.60;0.60;;;;;;;;;;1895396;76;26648;-56
2022/05/30 07:32:38;;;;;;;3.33;0.60;;;;;;;;;;1868051;76;26346;-45
2022/05/30 07:35:06;;;;;;;4.15;0.57;;;;;;;;;;1852406;77;26712;-57
2022/05/30 07:37:34;;;;;;;0.60;0.60;;;;;;;;;;1836472;76;26320;-51
2022/05/30 07:40:02;;;;;;;0.60;0.60;;;;;;;;;;1852694;76;27235;-51
2022/05/30 07:42:29;;;;;;;0.50;0.50;;;;;;;;;;1849806;76;26741;-54
2022/05/30 07:44:56;;;;;;;0.50;0.50;;;;;;;;;;1868451;76;26675;-49
2022/05/30 07:47:24;;;;;;;0.62;0.53;;;;;;;;;;1862872;76;26266;-56
2022/05/30 07:49:51;;;;;;;2.90;0.57;;;;;;;;;;1864462;76;26339;-51
2022/05/30 07:52:18;;;;;;;0.60;0.60;;;;;;;;;;1871905;76;26250;-45
2022/05/30 07:54:45;;;;;;;0.90;0.50;;;;;;;;;;1857105;76;26300;-59
2022/05/30 07:57:13;;;;;;;0.93;0.50;;;;;;;;;;1864690;76;26251;-51
2022/05/30 07:59:40;;;;;;;0.50;0.50;;;;;;;;;;1867249;76;26363;-48
2022/05/30 08:02:07;;;;;;;0.50;0.50;;;;;;;;;;1879980;76;26304;-60
2022/05/30 08:04:35;;;;;;;0.50;0.50;;;;;;;;;;1858316;76;26279;-52
2022/05/30 08:07:04;;;;;;;0.50;0.50;;;;;;;;;;1845047;77;26322;-57
2022/05/30 08:09:31;;;;;;;1.42;0.50;;;;;;;;;;1801123;78;26316;-61
2022/05/30 08:11:59;;;;;;;0.60;0.60;;;;;;;;;;1786087;79;26328;-54
2022/05/30 08:14:26;;;;;;;0.40;0.40;;;;;;;;;;1791074;79;26311;-59
2022/05/30 08:16:53;;;;;;;0.40;0.40;;;;;;;;;;1786864;79;26324;-51
2022/05/30 08:19:21;;;;;;;0.60;0.50;;;;;;;;;;1790746;79;26343;-49
2022/05/30 08:21:48;;;;;;;1.15;0.53;;;;;;;;;;1781445;79;26809;-49
2022/05/30 08:24:15;;;;;;;1.42;0.60;;;;;;;;;;1779972;79;26271;-50
2022/05/30 08:26:42;;;;;;;0.50;0.50;;;;;;;;;;1807027;78;26210;-47
2022/05/30 08:29:10;;;;;;;0.40;0.40;;;;;;;;;;1802576;78;26283;-49
2022/05/30 08:31:37;;;;;;;5.55;0.60;;;;;;;;;;1788846;79;26296;-53
2022/05/30 08:34:04;;;;;;;0.53;0.53;;;;;;;;;;1786624;79;26314;-62
2022/05/30 08:36:32;;;;;;;0.78;0.68;;;;;;;;;;1781406;79;26335;-59
2022/05/30 08:41:47;;;;;;;1.27;0.50;;;;;;;;;;1771543;80;26930;-53
2022/05/30 08:44:16;;;;;;;0.42;0.42;;;;;;;;;;1781702;79;26315;-50
2022/05/30 08:47:02;;;;;;;0.40;0.40;;;;;;;;;;1773302;80;26869;-48
2022/05/30 08:49:31;;;;;;;0.50;0.50;;;;;;;;;;1778724;79;26341;-49
2022/05/30 08:52:18;;;;;;;0.50;0.50;;;;;;;;;;1787710;79;26290;-53
2022/05/30 08:55:02;;;;;;;0.60;0.50;;;;;;;;;;1799672;79;26679;-56
2022/05/30 08:57:36;;;;;;;0.40;0.40;;;;;;;;;;1783900;79;26291;-54
2022/05/30 09:00:11;;;;;;;0.50;0.50;;;;;;;;;;1772797;79;26640;-49
2022/05/30 09:02:40;;;;;;;1.12;0.50;;;;;;;;;;1778962;80;26241;-52
2022/05/30 09:05:12;;;;;;;0.50;0.50;;;;;;;;;;1758067;80;26354;-51
2022/05/30 09:07:41;;;;;;;0.50;0.50;;;;;;;;;;1760073;80;26303;-46
2022/05/30 09:10:10;;;;;;;0.50;0.50;;;;;;;;;;1763179;79;26338;-54
2022/05/30 09:12:39;;;;;;;0.40;0.40;;;;;;;;;;1773700;80;26323;-58
2022/05/30 09:15:08;;;;;;;0.62;0.62;;;;;;;;;;1796393;79;26283;-58
2022/05/30 09:17:45;;;;;;;0.50;0.50;;;;;;;;;;1782373;79;26224;-54
2022/05/30 09:20:14;;;;;;;0.50;0.50;;;;;;;;;;1795807;78;26663;-53
2022/05/30 09:22:42;;;;;;;0.50;0.50;;;;;;;;;;1794463;78;28688;-49
2022/05/30 09:27:56;;;;;;;0.37;0.37;;;;;;;;;;1776254;79;26701;-48
2022/05/30 09:30:25;;;;;;;0.50;0.50;;;;;;;;;;1776782;79;26675;-49
2022/05/30 09:32:57;;;;;;;0.53;0.53;;;;;;;;;;1782713;79;26325;-49
2022/05/30 09:35:25;;;;;;;0.55;0.55;;;;;;;;;;1775868;79;26724;-45
2022/05/30 09:38:06;;;;;;;1.30;0.50;;;;;;;;;;1753687;81;27368;-50
2022/05/30 09:40:41;;;;;;;0.40;0.40;;;;;;;;;;1805399;78;26689;-49
2022/05/30 09:43:08;;;;;;;0.40;0.40;;;;;;;;;;1808142;78;26660;-55
2022/05/30 09:45:35;;;;;;;0.57;0.57;;;;;;;;;;1816162;78;26193;-58
2022/05/30 09:48:07;;;;;;;0.50;0.50;;;;;;;;;;1804808;78;26331;-55
2022/05/30 09:50:36;;;;;;;0.65;0.65;;;;;;;;;;1798595;78;26283;-52
2022/05/30 09:53:03;;;;;;;1.17;0.47;;;;;;;;;;1782781;79;26422;-50
2022/05/30 09:55:48;;;;;;;0.50;0.50;;;;;;;;;;1811339;78;26314;-45
2022/05/30 09:58:15;;;;;;;0.50;0.50;;;;;;;;;;1773108;79;38631;-46
2022/05/30 10:00:44;;;;;;;0.50;0.50;;;;;;;;;;1779249;79;26227;-53
2022/05/30 10:03:27;;;;;;;0.53;0.53;;;;;;;;;;1777801;79;26302;-54
2022/05/30 10:05:57;;;;;;;0.40;0.40;;;;;;;;;;1785732;78;26752;-47
2022/05/30 10:08:29;;;;;;;0.60;0.60;;;;;;;;;;1791402;78;26393;-54
2022/05/30 10:10:57;;;;;;;1.30;0.50;;;;;;;;;;1803481;78;26389;-51
2022/05/30 10:13:38;;;;;;;0.40;0.40;;;;;;;;;;1801073;79;26291;-51
2022/05/30 10:16:07;;;;;;;0.37;0.37;;;;;;;;;;1796726;78;26284;-52
2022/05/30 10:18:36;;;;;;;0.40;0.40;;;;;;;;;;1802565;78;26280;-57
2022/05/30 10:21:08;;;;;;;0.57;0.57;;;;;;;;;;1800684;78;26934;-52
2022/05/30 10:29:30;;;;;;;1.35;0.30;;;;;;;;;;1796842;78;26844;-48
2022/05/30 10:32:17;;;;;;;0.50;0.50;;;;;;;;;;1804081;77;28815;-50
2022/05/30 10:35:02;;;;;;;0.40;0.40;;;;;;;;;;1778786;79;26345;-46
2022/05/30 10:37:37;;;;;;;0.57;0.57;;;;;;;;;;1804755;78;28704;-50
2022/05/30 10:40:22;;;;;;;0.47;0.47;;;;;;;;;;1790397;78;26249;-51
2022/05/30 10:42:51;;;;;;;2.02;0.50;;;;;;;;;;1832566;76;28057;-56
2022/05/30 10:45:20;;;;;;;0.37;0.37;;;;;;;;;;1823588;79;26315;-62
2022/05/30 10:47:49;;;;;;;0.50;0.50;;;;;;;;;;1850789;76;26332;-53
2022/05/30 10:50:21;;;;;;;0.50;0.50;;;;;;;;;;1836448;76;26273;-49
2022/05/30 10:52:49;;;;;;;0.50;0.50;;;;;;;;;;1843782;77;26549;-52
2022/05/30 10:55:28;;;;;;;0.37;0.37;;;;;;;;;;1847325;76;26249;-55
2022/05/30 10:57:57;;;;;;;0.50;0.50;;;;;;;;;;1846094;76;26273;-54
2022/05/30 11:00:26;;;;;;;0.50;0.42;;;;;;;;;;1855825;76;26328;-59
2022/05/30 11:03:04;;;;;;;0.60;0.60;;;;;;;;;;1853448;76;26243;-58
2022/05/30 11:05:33;;;;;;;0.45;0.45;;;;;;;;;;1850775;76;26660;-53
2022/05/30 11:08:08;;;;;;;0.50;0.50;;;;;;;;;;1835859;76;26289;-54
2022/05/30 11:10:38;;;;;;;0.55;0.55;;;;;;;;;;1848537;77;26785;-58
2022/05/30 11:13:10;;;;;;;0.40;0.40;;;;;;;;;;1840647;76;26321;-55
2022/05/30 11:15:41;;;;;;;0.50;0.50;;;;;;;;;;1840902;77;26361;-52
2022/05/30 11:18:16;;;;;;;0.47;0.47;;;;;;;;;;1842168;76;26259;-54
2022/05/30 11:20:45;;;;;;;0.40;0.40;;;;;;;;;;1837045;77;26852;-54
2022/05/30 11:23:13;;;;;;;0.50;0.50;;;;;;;;;;1842815;77;26755;-53
2022/05/30 11:25:57;;;;;;;0.47;0.47;;;;;;;;;;1844458;77;26273;-54
2022/05/30 11:28:29;;;;;;;0.50;0.50;;;;;;;;;;1852288;77;26766;-54
2022/05/30 11:31:00;;;;;;;0.40;0.40;;;;;;;;;;1777485;77;26265;-59
2022/05/30 11:33:29;;;;;;;0.40;0.40;;;;;;;;;;1850657;77;26293;-46
2022/05/30 11:36:13;;;;;;;0.50;0.50;;;;;;;;;;1838284;77;28173;-63
2022/05/30 11:38:42;;;;;;;0.40;0.40;;;;;;;;;;1852544;77;26293;-54
2022/05/30 11:41:11;;;;;;;0.95;0.50;;;;;;;;;;1834301;77;26329;-45
2022/05/30 11:43:51;;;;;;;0.30;0.30;;;;;;;;;;1851777;77;26273;-59
2022/05/30 11:46:20;;;;;;;0.50;0.50;;;;;;;;;;1849130;76;26244;-54
2022/05/30 11:48:58;;;;;;;0.60;0.60;;;;;;;;;;1833859;77;26391;-60
2022/05/30 11:51:42;;;;;;;1.65;0.40;;;;;;;;;;1835707;77;26297;-42
2022/05/30 11:54:17;;;;;;;0.50;0.50;;;;;;;;;;1829423;77;28037;-56
2022/05/30 11:56:49;;;;;;;0.57;0.57;;;;;;;;;;1843721;77;26338;-47
2022/05/30 11:59:27;;;;;;;0.40;0.40;;;;;;;;;;1835761;77;26260;-53
2022/05/30 12:01:56;;;;;;;0.60;0.60;;;;;;;;;;1838476;77;26334;-56
2022/05/30 12:04:28;;;;;;;0.57;0.50;;;;;;;;;;1836318;77;26343;-51
2022/05/30 12:07:14;;;;;;;0.50;0.50;;;;;;;;;;1849695;76;26816;-58
2022/05/30 12:09:42;;;;;;;0.50;0.50;;;;;;;;;;1853283;76;26371;-54
2022/05/30 12:12:23;;;;;;;0.40;0.40;;;;;;;;;;1856870;76;26251;-51
2022/05/30 12:15:10;;;;;;;0.40;0.40;;;;;;;;;;1849684;76;26314;-51
2022/05/30 12:23:47;;;;;;;0.30;0.30;;;;;;;;;;1844995;76;26296;-55
2022/05/30 12:25:52;;;;;;;0.50;0.50;;;;;;;;;;1843376;76;26680;-62
2022/05/30 12:28:34;;;;;;;0.50;0.50;;;;;;;;;;1840602;76;26265;-60
2022/05/30 12:31:03;;;;;;;2.35;0.70;;;;;;;;;;1843139;76;26336;-48
2022/05/30 12:33:32;;;;;;;0.50;0.50;;;;;;;;;;1841603;76;26316;-54
2022/05/30 12:36:13;;;;;;;0.50;0.50;;;;;;;;;;1843953;76;26332;-52
2022/05/30 12:38:57;;;;;;;0.40;0.40;;;;;;;;;;1844865;76;26273;-50
2022/05/30 12:41:42;;;;;;;0.45;0.45;;;;;;;;;;1846691;76;26277;-56
2022/05/30 12:44:11;;;;;;;0.60;0.60;;;;;;;;;;1842509;76;26262;-52
2022/05/30 12:46:42;;;;;;;0.50;0.50;;;;;;;;;;1826837;76;26757;-53
2022/05/30 12:49:17;;;;;;;0.50;0.50;;;;;;;;;;1841061;76;26289;-53
2022/05/30 12:51:59;;;;;;;0.40;0.40;;;;;;;;;;1845745;76;26547;-55
2022/05/30 12:54:27;;;;;;;0.50;0.50;;;;;;;;;;1848092;76;26262;-50
2022/05/30 12:57:05;;;;;;;0.30;0.30;;;;;;;;;;1846828;77;26315;-47
2022/05/30 12:59:34;;;;;;;0.45;0.42;;;;;;;;;;1835190;76;28620;-52
2022/05/30 13:02:03;;;;;;;0.65;0.53;;;;;;;;;;1844856;76;26277;-44
2022/05/30 13:04:34;;;;;;;0.47;0.47;;;;;;;;;;1846568;77;26274;-62
2022/05/30 13:07:04;;;;;;;0.40;0.40;;;;;;;;;;1843319;76;26744;-56
2022/05/30 13:09:40;;;;;;;0.50;0.50;;;;;;;;;;1816847;77;26333;-53
2022/05/30 13:12:17;;;;;;;0.40;0.40;;;;;;;;;;1831095;77;26318;-50
2022/05/30 13:14:48;;;;;;;0.50;0.50;;;;;;;;;;1827750;77;26319;-56
2022/05/30 13:17:23;;;;;;;0.40;0.40;;;;;;;;;;1827842;77;26284;-53
2022/05/30 13:19:55;;;;;;;1.10;0.40;;;;;;;;;;1835742;77;26301;-47
2022/05/30 13:22:27;;;;;;;0.40;0.40;;;;;;;;;;1835090;77;26285;-47
2022/05/30 13:24:54;;;;;;;0.50;0.50;;;;;;;;;;1834612;77;25820;-53
2022/05/30 13:27:22;;;;;;;1.70;0.50;;;;;;;;;;1810026;77;38549;-51
2022/05/30 13:29:49;;;;;;;0.47;0.47;;;;;;;;;;1834137;78;27357;-50
2022/05/30 13:32:18;;;;;;;0.78;0.50;;;;;;;;;;1828882;77;26844;-45
2022/05/30 13:34:48;;;;;;;0.40;0.40;;;;;;;;;;1804417;77;26791;-55
2022/05/30 13:37:17;;;;;;;0.98;0.30;;;;;;;;;;1828143;77;26274;-50
2022/05/30 13:39:45;;;;;;;0.40;0.40;;;;;;;;;;1820028;77;26202;-59
2022/05/30 13:42:13;;;;;;;0.30;0.30;;;;;;;;;;1831754;78;26645;-57
2022/05/30 13:44:42;;;;;;;0.37;0.37;;;;;;;;;;1832107;77;26341;-54
2022/05/30 13:47:11;;;;;;;0.30;0.30;;;;;;;;;;1833771;78;26276;-45
2022/05/30 13:49:40;;;;;;;0.30;0.30;;;;;;;;;;1831727;77;26266;-48
2022/05/30 13:52:15;;;;;;;0.45;0.45;;;;;;;;;;1836806;77;26347;-55
2022/05/30 13:54:43;;;;;;;0.40;0.40;;;;;;;;;;1793309;77;28608;-50
2022/05/30 13:57:12;;;;;;;0.30;0.30;;;;;;;;;;1836782;77;26430;-49
2022/05/30 13:59:52;;;;;;;0.30;0.30;;;;;;;;;;1836356;76;26277;-58
2022/05/30 14:02:22;;;;;;;1.65;0.40;;;;;;;;;;1827578;77;26246;-64
2022/05/30 14:04:51;;;;;;;2.55;0.50;;;;;;;;;;1832267;78;26913;-51
2022/05/30 14:07:23;;;;;;;0.40;0.40;;;;;;;;;;1850879;76;26237;-56
2022/05/30 14:09:52;;;;;;;0.90;0.50;;;;;;;;;;1833122;76;26305;-46
2022/05/30 14:12:20;;;;;;;0.30;0.30;;;;;;;;;;1855861;77;26641;-47
2022/05/30 14:14:48;;;;;;;0.33;0.33;;;;;;;;;;1857282;76;26261;-47
2022/05/30 14:17:30;;;;;;;0.40;0.40;;;;;;;;;;1850612;76;26303;-51
2022/05/30 14:20:12;;;;;;;0.37;0.37;;;;;;;;;;1847312;76;26870;-56
2022/05/30 14:22:41;;;;;;;0.30;0.30;;;;;;;;;;1840748;76;26759;-46
2022/05/30 14:25:10;;;;;;;0.47;0.47;;;;;;;;;;1835024;77;26700;-58
2022/05/30 14:27:37;;;;;;;0.25;0.25;;;;;;;;;;1851945;76;26292;-47
2022/05/30 14:30:07;;;;;;;0.40;0.40;;;;;;;;;;1843708;76;26273;-49
2022/05/30 14:32:36;;;;;;;0.50;0.40;;;;;;;;;;1845103;76;28124;-53
2022/05/30 14:35:08;;;;;;;0.30;0.30;;;;;;;;;;1856572;76;26195;-55
2022/05/30 14:37:38;;;;;;;0.35;0.35;;;;;;;;;;1839066;76;26452;-55
2022/05/30 14:40:13;;;;;;;0.30;0.30;;;;;;;;;;1836495;76;28550;-51
2022/05/30 14:42:48;;;;;;;0.40;0.40;;;;;;;;;;1847965;76;26851;-49
2022/05/30 14:45:29;;;;;;;1.75;0.50;;;;;;;;;;1849161;76;26221;-52
2022/05/30 14:48:01;;;;;;;2.72;0.45;;;;;;;;;;1853687;76;26898;-52
2022/05/30 14:50:42;;;;;;;0.70;0.50;;;;;;;;;;1854955;76;26686;-48
2022/05/30 14:53:11;;;;;;;0.40;0.40;;;;;;;;;;1856725;76;26307;-49
2022/05/30 14:55:42;;;;;;;3.25;0.53;;;;;;;;;;1854438;76;26343;-46
2022/05/30 14:58:11;;;;;;;1.55;0.53;;;;;;;;;;1851078;76;26678;-45
2022/05/30 15:00:41;;;;;;;0.40;0.40;;;;;;;;;;1843840;77;26323;-45
2022/05/30 15:05:55;;;;;;;0.23;0.23;;;;;;;;;;1839961;76;26280;-48
2022/05/30 15:08:23;;;;;;;0.78;0.40;;;;;;;;;;1825138;77;26391;-49
2022/05/30 15:10:51;;;;;;;2.95;0.42;;;;;;;;;;1815894;77;26314;-49
2022/05/30 15:13:18;;;;;;;0.40;0.40;;;;;;;;;;1830717;77;26314;-53
2022/05/30 15:15:46;;;;;;;1.22;0.30;;;;;;;;;;1835147;77;26258;-56
2022/05/30 15:18:14;;;;;;;0.40;0.40;;;;;;;;;;1832001;76;26351;-51
2022/05/30 15:20:41;;;;;;;3.52;0.50;;;;;;;;;;1831595;78;26958;-56
2022/05/30 15:23:09;;;;;;;0.40;0.40;;;;;;;;;;1835694;77;26359;-55
2022/05/30 15:25:36;;;;;;;0.53;0.53;;;;;;;;;;1836933;78;26277;-51
2022/05/30 15:28:04;;;;;;;0.47;0.47;;;;;;;;;;1836853;77;26713;-51